createdAt,value
2018-03-29T00:00:57.612Z,1007.79
2018-03-29T00:01:57.628Z,1007.77
2018-03-29T00:02:57.710Z,1007.75
2018-03-29T00:03:57.651Z,1007.71
2018-03-29T00:04:57.597Z,1007.73
2018-03-29T00:05:57.611Z,1007.74
2018-03-29T00:06:57.612Z,1007.78
2018-03-29T00:07:57.606Z,1007.8
2018-03-29T00:08:57.634Z,1007.9
2018-03-29T00:09:57.668Z,1007.91
2018-03-29T00:10:57.614Z,1007.93
2018-03-29T00:11:57.614Z,1007.94
2018-03-29T00:12:57.637Z,1007.97
2018-03-29T00:13:57.640Z,1008.02
2018-03-29T00:14:57.604Z,1008.06
2018-03-29T00:15:57.622Z,1008.11
2018-03-29T00:16:57.618Z,1008.13
2018-03-29T00:17:57.610Z,1008.14
2018-03-29T00:18:57.606Z,1008.16
2018-03-29T00:19:57.648Z,1008.2
2018-03-29T00:20:57.612Z,1008.22
2018-03-29T00:21:57.629Z,1008.27
2018-03-29T00:22:57.623Z,1008.31
2018-03-29T00:23:57.607Z,1008.31
2018-03-29T00:24:57.614Z,1008.39
2018-03-29T00:25:57.632Z,1008.37
2018-03-29T00:26:57.608Z,1008.4
2018-03-29T00:27:57.610Z,1008.43
2018-03-29T00:28:57.616Z,1008.45
2018-03-29T00:29:57.620Z,1008.48
2018-03-29T00:30:57.638Z,1008.49
2018-03-29T00:31:57.621Z,1008.5
2018-03-29T00:32:57.616Z,1008.5
2018-03-29T00:33:57.667Z,1008.49
2018-03-29T00:34:57.620Z,1008.59
2018-03-29T00:35:57.800Z,1008.54
2018-03-29T00:36:57.626Z,1008.56
2018-03-29T00:37:57.612Z,1008.65
2018-03-29T00:38:57.616Z,1008.56
2018-03-29T00:39:57.619Z,1008.61
2018-03-29T00:40:57.638Z,1008.58
2018-03-29T00:41:57.608Z,1008.65
2018-03-29T00:42:57.618Z,1008.65
2018-03-29T00:43:57.621Z,1008.63
2018-03-29T00:44:57.621Z,1008.58
2018-03-29T00:45:57.612Z,1008.57
2018-03-29T00:46:57.632Z,1008.64
2018-03-29T00:47:57.623Z,1008.55
2018-03-29T00:48:57.626Z,1008.56
2018-03-29T00:49:57.621Z,1008.52
2018-03-29T00:50:57.625Z,1008.61
2018-03-29T00:51:57.612Z,1008.59
2018-03-29T00:52:57.614Z,1008.58
2018-03-29T00:53:57.651Z,1008.61
2018-03-29T00:54:57.625Z,1008.61
2018-03-29T00:55:57.614Z,1008.68
2018-03-29T00:56:57.613Z,1008.66
2018-03-29T00:57:57.620Z,1008.64
2018-03-29T00:58:57.615Z,1008.74
2018-03-29T00:59:57.649Z,1008.78
2018-03-29T01:00:57.648Z,1008.69
2018-03-29T01:01:57.620Z,1008.75
2018-03-29T01:02:57.625Z,1008.78
2018-03-29T01:03:58.092Z,1008.79
2018-03-29T01:04:57.735Z,1008.78
2018-03-29T01:05:57.621Z,1008.84
2018-03-29T01:06:57.638Z,1008.87
2018-03-29T01:07:57.636Z,1008.87
2018-03-29T01:08:57.643Z,1008.91
2018-03-29T01:09:57.620Z,1008.98
2018-03-29T01:10:57.619Z,1008.96
2018-03-29T01:11:57.628Z,1008.99
2018-03-29T01:12:57.646Z,1009.04
2018-03-29T01:13:57.627Z,1009.05
2018-03-29T01:14:57.642Z,1009.04
2018-03-29T01:15:57.631Z,1009.05
2018-03-29T01:16:57.630Z,1009.01
2018-03-29T01:17:57.670Z,1009.03
2018-03-29T01:18:57.633Z,1009.06
2018-03-29T01:19:57.635Z,1009.04
2018-03-29T01:20:57.632Z,1009.05
2018-03-29T01:21:57.626Z,1009.01
2018-03-29T01:22:57.626Z,1009.05
2018-03-29T01:23:57.637Z,1009.09
2018-03-29T01:24:57.626Z,1009.09
2018-03-29T01:25:57.633Z,1009.09
2018-03-29T01:26:57.644Z,1009.08
2018-03-29T01:27:57.641Z,1009.1
2018-03-29T01:28:57.642Z,1009.11
2018-03-29T01:29:57.648Z,1009.09
2018-03-29T01:30:57.637Z,1009.13
2018-03-29T01:31:57.641Z,1009.11
2018-03-29T01:32:57.630Z,1009.12
2018-03-29T01:33:57.632Z,1009.17
2018-03-29T01:34:57.665Z,1009.09
2018-03-29T01:35:57.702Z,1009.06
2018-03-29T01:36:57.639Z,1009.08
2018-03-29T01:37:57.634Z,1009.12
2018-03-29T01:38:57.655Z,1009.12
2018-03-29T01:39:57.672Z,1009.08
2018-03-29T01:40:57.636Z,1009.06
2018-03-29T01:41:57.651Z,1009.1
2018-03-29T01:42:57.635Z,1009.1
2018-03-29T01:43:57.925Z,1009.07
2018-03-29T01:44:57.638Z,1009.04
2018-03-29T01:45:57.675Z,1009.05
2018-03-29T01:46:57.638Z,1009.05
2018-03-29T01:47:57.639Z,1009.12
2018-03-29T01:48:57.661Z,1009.17
2018-03-29T01:49:57.668Z,1009.1
2018-03-29T01:50:57.637Z,1009.13
2018-03-29T01:51:57.645Z,1009.13
2018-03-29T01:52:57.667Z,1009.1
2018-03-29T01:53:57.930Z,1009.17
2018-03-29T01:54:57.640Z,1009.17
2018-03-29T01:55:57.647Z,1009.21
2018-03-29T01:56:57.642Z,1009.23
2018-03-29T01:57:57.638Z,1009.26
2018-03-29T01:58:58.000Z,1009.26
2018-03-29T01:59:57.731Z,1009.34
2018-03-29T02:00:57.722Z,1009.31
2018-03-29T02:01:57.643Z,1009.31
2018-03-29T02:02:57.649Z,1009.36
2018-03-29T02:03:57.671Z,1009.37
2018-03-29T02:04:57.643Z,1009.4
2018-03-29T02:05:57.658Z,1009.4
2018-03-29T02:06:57.741Z,1009.41
2018-03-29T02:07:57.646Z,1009.45
2018-03-29T02:08:57.644Z,1009.48
2018-03-29T02:09:57.650Z,1009.46
2018-03-29T02:10:57.644Z,1009.52
2018-03-29T02:11:57.646Z,1009.52
2018-03-29T02:12:57.650Z,1009.48
2018-03-29T02:13:57.642Z,1009.5
2018-03-29T02:14:57.653Z,1009.46
2018-03-29T02:15:57.643Z,1009.49
2018-03-29T02:16:57.654Z,1009.49
2018-03-29T02:17:57.643Z,1009.48
2018-03-29T02:18:57.675Z,1009.46
2018-03-29T02:19:57.640Z,1009.45
2018-03-29T02:20:57.650Z,1009.44
2018-03-29T02:21:57.651Z,1009.49
2018-03-29T02:22:57.656Z,1009.46
2018-03-29T02:23:57.647Z,1009.46
2018-03-29T02:24:57.655Z,1009.5
2018-03-29T02:25:57.653Z,1009.49
2018-03-29T02:26:57.651Z,1009.5
2018-03-29T02:27:57.647Z,1009.48
2018-03-29T02:28:57.647Z,1009.47
2018-03-29T02:29:57.652Z,1009.45
2018-03-29T02:30:57.670Z,1009.46
2018-03-29T02:31:57.657Z,1009.43
2018-03-29T02:32:57.667Z,1009.44
2018-03-29T02:33:57.655Z,1009.48
2018-03-29T02:34:57.673Z,1009.51
2018-03-29T02:35:57.737Z,1009.51
2018-03-29T02:36:57.657Z,1009.54
2018-03-29T02:37:57.745Z,1009.54
2018-03-29T02:38:57.656Z,1009.56
2018-03-29T02:39:57.678Z,1009.59
2018-03-29T02:40:57.661Z,1009.63
2018-03-29T02:41:57.662Z,1009.67
2018-03-29T02:42:57.670Z,1009.67
2018-03-29T02:43:57.656Z,1009.68
2018-03-29T02:44:57.691Z,1009.71
2018-03-29T02:45:57.666Z,1009.73
2018-03-29T02:46:57.667Z,1009.73
2018-03-29T02:47:57.670Z,1009.79
2018-03-29T02:48:57.669Z,1009.77
2018-03-29T02:49:57.688Z,1009.74
2018-03-29T02:50:57.659Z,1009.77
2018-03-29T02:51:57.672Z,1009.77
2018-03-29T02:52:57.670Z,1009.74
2018-03-29T02:53:57.662Z,1009.74
2018-03-29T02:54:57.687Z,1009.76
2018-03-29T02:55:57.657Z,1009.73
2018-03-29T02:56:57.663Z,1009.75
2018-03-29T02:57:57.652Z,1009.76
2018-03-29T02:58:57.685Z,1009.79
2018-03-29T02:59:57.682Z,1009.76
2018-03-29T03:00:57.679Z,1009.75
2018-03-29T03:01:57.664Z,1009.78
2018-03-29T03:02:57.665Z,1009.8
2018-03-29T03:03:57.681Z,1009.8
2018-03-29T03:04:57.661Z,1009.77
2018-03-29T03:05:57.684Z,1009.79
2018-03-29T03:06:57.669Z,1009.79
2018-03-29T03:07:57.666Z,1009.77
2018-03-29T03:08:57.728Z,1009.82
2018-03-29T03:09:57.703Z,1009.83
2018-03-29T03:10:57.674Z,1009.83
2018-03-29T03:11:58.322Z,1009.89
2018-03-29T03:12:57.669Z,1009.87
2018-03-29T03:13:57.665Z,1009.89
2018-03-29T03:14:57.661Z,1009.92
2018-03-29T03:15:57.670Z,1009.9
2018-03-29T03:16:57.667Z,1009.94
2018-03-29T03:17:57.669Z,1009.94
2018-03-29T03:18:57.671Z,1009.94
2018-03-29T03:19:57.727Z,1009.94
2018-03-29T03:20:57.677Z,1009.97
2018-03-29T03:21:57.668Z,1010
2018-03-29T03:22:57.672Z,1010
2018-03-29T03:23:57.673Z,1010.06
2018-03-29T03:24:57.697Z,1010.02
2018-03-29T03:25:57.665Z,1010.06
2018-03-29T03:26:57.669Z,1010.05
2018-03-29T03:27:57.669Z,1010.04
2018-03-29T03:28:57.676Z,1010.02
2018-03-29T03:29:57.696Z,1010.03
2018-03-29T03:30:57.696Z,1010.04
2018-03-29T03:31:57.672Z,1010.04
2018-03-29T03:32:57.670Z,1010.04
2018-03-29T03:33:57.679Z,1010.06
2018-03-29T03:34:57.669Z,1010.08
2018-03-29T03:35:57.864Z,1010.09
2018-03-29T03:36:57.674Z,1010.07
2018-03-29T03:37:57.682Z,1010.04
2018-03-29T03:38:57.672Z,1010.04
2018-03-29T03:39:57.723Z,1010.06
2018-03-29T03:40:57.732Z,1010.04
2018-03-29T03:41:57.670Z,1010.13
2018-03-29T03:42:57.666Z,1010.09
2018-03-29T03:43:57.682Z,1010.07
2018-03-29T03:44:57.671Z,1010.11
2018-03-29T03:45:57.692Z,1010.08
2018-03-29T03:46:57.682Z,1010.11
2018-03-29T03:47:57.669Z,1010.1
2018-03-29T03:48:57.674Z,1010.11
2018-03-29T03:49:57.678Z,1010.08
2018-03-29T03:50:57.675Z,1010.07
2018-03-29T03:51:57.671Z,1010.07
2018-03-29T03:52:57.674Z,1010.08
2018-03-29T03:53:57.678Z,1010.08
2018-03-29T03:54:57.672Z,1010.03
2018-03-29T03:55:57.700Z,1010.06
2018-03-29T03:56:57.671Z,1010.14
2018-03-29T03:57:57.677Z,1010.07
2018-03-29T03:58:57.674Z,1010.06
2018-03-29T03:59:57.680Z,1010.08
2018-03-29T04:00:57.696Z,1010.09
2018-03-29T04:01:57.685Z,1010.06
2018-03-29T04:02:57.686Z,1010.08
2018-03-29T04:03:57.680Z,1010.06
2018-03-29T04:04:57.691Z,1010.05
2018-03-29T04:05:57.681Z,1010.05
2018-03-29T04:06:57.688Z,1010.06
2018-03-29T04:07:57.687Z,1010.09
2018-03-29T04:08:57.679Z,1010.1
2018-03-29T04:09:57.681Z,1010.12
2018-03-29T04:10:57.767Z,1010.14
2018-03-29T04:11:58.066Z,1010.17
2018-03-29T04:12:57.686Z,1010.18
2018-03-29T04:13:57.687Z,1010.2
2018-03-29T04:14:57.690Z,1010.21
2018-03-29T04:15:57.686Z,1010.23
2018-03-29T04:16:57.714Z,1010.21
2018-03-29T04:17:57.685Z,1010.22
2018-03-29T04:18:57.699Z,1010.25
2018-03-29T04:19:57.763Z,1010.24
2018-03-29T04:20:57.690Z,1010.25
2018-03-29T04:21:57.710Z,1010.25
2018-03-29T04:22:57.686Z,1010.26
2018-03-29T04:23:57.692Z,1010.31
2018-03-29T04:24:57.703Z,1010.29
2018-03-29T04:25:57.697Z,1010.31
2018-03-29T04:26:57.688Z,1010.26
2018-03-29T04:27:57.721Z,1010.28
2018-03-29T04:28:57.700Z,1010.27
2018-03-29T04:29:57.693Z,1010.27
2018-03-29T04:30:57.692Z,1010.29
2018-03-29T04:31:57.694Z,1010.3
2018-03-29T04:32:57.694Z,1010.33
2018-03-29T04:33:57.700Z,1010.35
2018-03-29T04:34:57.688Z,1010.33
2018-03-29T04:35:57.712Z,1010.33
2018-03-29T04:36:57.703Z,1010.38
2018-03-29T04:37:57.691Z,1010.43
2018-03-29T04:38:57.702Z,1010.44
2018-03-29T04:39:57.695Z,1010.49
2018-03-29T04:40:57.696Z,1010.5
2018-03-29T04:41:57.769Z,1010.49
2018-03-29T04:42:57.719Z,1010.55
2018-03-29T04:43:57.703Z,1010.56
2018-03-29T04:44:57.696Z,1010.56
2018-03-29T04:45:57.700Z,1010.57
2018-03-29T04:46:57.698Z,1010.61
2018-03-29T04:47:57.695Z,1010.61
2018-03-29T04:48:57.710Z,1010.56
2018-03-29T04:49:57.729Z,1010.62
2018-03-29T04:50:57.701Z,1010.6
2018-03-29T04:51:57.717Z,1010.61
2018-03-29T04:52:57.700Z,1010.64
2018-03-29T04:53:57.705Z,1010.65
2018-03-29T04:54:57.709Z,1010.66
2018-03-29T04:55:57.698Z,1010.68
2018-03-29T04:56:57.729Z,1010.68
2018-03-29T04:57:57.719Z,1010.67
2018-03-29T04:58:57.716Z,1010.65
2018-03-29T04:59:57.751Z,1010.7
2018-03-29T05:00:57.701Z,1010.7
2018-03-29T05:01:57.701Z,1010.77
2018-03-29T05:02:57.724Z,1010.77
2018-03-29T05:03:57.713Z,1010.75
2018-03-29T05:04:57.707Z,1010.72
2018-03-29T05:05:57.714Z,1010.79
2018-03-29T05:06:57.713Z,1010.7
2018-03-29T05:07:57.743Z,1010.79
2018-03-29T05:08:57.703Z,1010.74
2018-03-29T05:09:57.715Z,1010.75
2018-03-29T05:10:57.705Z,1010.8
2018-03-29T05:11:57.712Z,1010.81
2018-03-29T05:12:57.801Z,1010.8
2018-03-29T05:13:57.723Z,1010.82
2018-03-29T05:14:57.708Z,1010.86
2018-03-29T05:15:57.715Z,1010.79
2018-03-29T05:16:57.711Z,1010.83
2018-03-29T05:17:57.713Z,1010.82
2018-03-29T05:18:57.712Z,1010.89
2018-03-29T05:19:57.709Z,1010.87
2018-03-29T05:20:58.510Z,1010.88
2018-03-29T05:21:57.719Z,1010.88
2018-03-29T05:22:57.706Z,1010.86
2018-03-29T05:23:57.707Z,1010.9
2018-03-29T05:24:57.747Z,1010.89
2018-03-29T05:25:57.715Z,1010.91
2018-03-29T05:26:57.713Z,1010.9
2018-03-29T05:27:57.737Z,1010.94
2018-03-29T05:28:57.715Z,1010.9
2018-03-29T05:29:57.718Z,1010.86
2018-03-29T05:30:57.721Z,1010.94
2018-03-29T05:31:58.097Z,1010.93
2018-03-29T05:32:57.734Z,1010.91
2018-03-29T05:33:57.711Z,1010.9
2018-03-29T05:34:57.729Z,1010.91
2018-03-29T05:35:57.721Z,1010.92
2018-03-29T05:36:57.738Z,1010.93
2018-03-29T05:37:57.741Z,1010.99
2018-03-29T05:38:57.712Z,1011.01
2018-03-29T05:39:57.717Z,1010.98
2018-03-29T05:40:57.715Z,1010.99
2018-03-29T05:41:57.731Z,1010.99
2018-03-29T05:42:57.718Z,1011.01
2018-03-29T05:43:57.778Z,1011.05
2018-03-29T05:44:57.742Z,1011.04
2018-03-29T05:45:57.723Z,1011.03
2018-03-29T05:46:57.805Z,1011
2018-03-29T05:47:57.723Z,1011.05
2018-03-29T05:48:57.736Z,1011.05
2018-03-29T05:49:57.723Z,1011.07
2018-03-29T05:50:57.723Z,1011.08
2018-03-29T05:51:57.934Z,1011.08
2018-03-29T05:52:57.728Z,1011.1
2018-03-29T05:53:57.866Z,1011.17
2018-03-29T05:54:57.717Z,1011.19
2018-03-29T05:55:57.730Z,1011.18
2018-03-29T05:56:57.757Z,1011.15
2018-03-29T05:57:57.724Z,1011.17
2018-03-29T05:58:57.741Z,1011.21
2018-03-29T05:59:57.737Z,1011.2
2018-03-29T06:00:57.731Z,1011.2
2018-03-29T06:01:57.769Z,1011.23
2018-03-29T06:02:57.780Z,1011.23
2018-03-29T06:03:57.730Z,1011.23
2018-03-29T06:04:57.723Z,1011.24
2018-03-29T06:05:57.726Z,1011.21
2018-03-29T06:06:57.750Z,1011.18
2018-03-29T06:07:57.735Z,1011.14
2018-03-29T06:08:57.732Z,1011.18
2018-03-29T06:09:57.730Z,1011.17
2018-03-29T06:10:57.813Z,1011.18
2018-03-29T06:11:57.896Z,1011.22
2018-03-29T06:12:57.734Z,1011.19
2018-03-29T06:13:57.728Z,1011.21
2018-03-29T06:14:57.795Z,1011.24
2018-03-29T06:15:57.735Z,1011.27
2018-03-29T06:16:57.755Z,1011.25
2018-03-29T06:17:57.725Z,1011.27
2018-03-29T06:18:57.728Z,1011.29
2018-03-29T06:19:57.880Z,1011.24
2018-03-29T06:20:57.729Z,1011.21
2018-03-29T06:21:57.742Z,1011.23
2018-03-29T06:22:57.761Z,1011.23
2018-03-29T06:23:58.773Z,1011.26
2018-03-29T06:24:57.732Z,1011.28
2018-03-29T06:25:57.735Z,1011.28
2018-03-29T06:26:58.324Z,1011.31
2018-03-29T06:27:57.864Z,1011.29
2018-03-29T06:28:57.742Z,1011.26
2018-03-29T06:29:57.766Z,1011.26
2018-03-29T06:30:57.737Z,1011.29
2018-03-29T06:31:57.764Z,1011.27
2018-03-29T06:32:58.599Z,1011.31
2018-03-29T06:33:57.769Z,1011.33
2018-03-29T06:34:57.737Z,1011.32
2018-03-29T06:35:57.728Z,1011.33
2018-03-29T06:36:57.734Z,1011.33
2018-03-29T06:37:57.763Z,1011.32
2018-03-29T06:38:57.734Z,1011.3
2018-03-29T06:39:57.753Z,1011.32
2018-03-29T06:40:57.751Z,1011.3
2018-03-29T06:41:57.753Z,1011.28
2018-03-29T06:42:58.131Z,1011.31
2018-03-29T06:43:57.832Z,1011.29
2018-03-29T06:44:57.743Z,1011.33
2018-03-29T06:45:57.782Z,1011.33
2018-03-29T06:46:57.865Z,1011.33
2018-03-29T06:47:57.754Z,1011.31
2018-03-29T06:48:57.735Z,1011.3
2018-03-29T06:49:57.742Z,1011.29
2018-03-29T06:50:57.740Z,1011.29
2018-03-29T06:51:57.738Z,1011.29
2018-03-29T06:52:58.051Z,1011.26
2018-03-29T06:53:57.735Z,1011.3
2018-03-29T06:54:57.783Z,1011.26
2018-03-29T06:55:57.729Z,1011.28
2018-03-29T06:56:57.738Z,1011.24
2018-03-29T06:57:57.763Z,1011.3
2018-03-29T06:58:57.739Z,1011.32
2018-03-29T06:59:57.734Z,1011.31
2018-03-29T07:00:57.873Z,1011.34
2018-03-29T07:01:57.739Z,1011.35
2018-03-29T07:02:57.766Z,1011.34
2018-03-29T07:03:57.752Z,1011.32
2018-03-29T07:04:57.751Z,1011.31
2018-03-29T07:05:57.752Z,1011.33
2018-03-29T07:06:57.744Z,1011.33
2018-03-29T07:07:57.743Z,1011.37
2018-03-29T07:08:57.742Z,1011.37
2018-03-29T07:09:57.749Z,1011.36
2018-03-29T07:10:57.761Z,1011.35
2018-03-29T07:11:57.789Z,1011.37
2018-03-29T07:12:57.739Z,1011.4
2018-03-29T07:13:57.751Z,1011.4
2018-03-29T07:14:57.830Z,1011.43
2018-03-29T07:15:57.738Z,1011.43
2018-03-29T07:16:57.843Z,1011.4
2018-03-29T07:17:57.763Z,1011.37
2018-03-29T07:18:57.776Z,1011.37
2018-03-29T07:19:57.757Z,1011.39
2018-03-29T07:20:57.754Z,1011.36
2018-03-29T07:21:57.751Z,1011.38
2018-03-29T07:22:57.760Z,1011.38
2018-03-29T07:23:57.756Z,1011.36
2018-03-29T07:24:57.750Z,1011.35
2018-03-29T07:25:57.755Z,1011.38
2018-03-29T07:26:57.758Z,1011.36
2018-03-29T07:27:57.748Z,1011.31
2018-03-29T07:28:57.753Z,1011.35
2018-03-29T07:29:57.749Z,1011.34
2018-03-29T07:30:57.764Z,1011.29
2018-03-29T07:31:57.752Z,1011.24
2018-03-29T07:32:57.763Z,1011.23
2018-03-29T07:33:57.756Z,1011.22
2018-03-29T07:34:58.157Z,1011.19
2018-03-29T07:35:57.763Z,1011.15
2018-03-29T07:36:57.802Z,1011.14
2018-03-29T07:37:57.761Z,1011.14
2018-03-29T07:38:57.753Z,1011.19
2018-03-29T07:39:57.783Z,1011.24
2018-03-29T07:40:57.780Z,1011.32
2018-03-29T07:41:57.747Z,1011.29
2018-03-29T07:42:57.752Z,1011.33
2018-03-29T07:43:57.757Z,1011.34
2018-03-29T07:44:57.753Z,1011.31
2018-03-29T07:45:57.758Z,1011.34
2018-03-29T07:46:57.748Z,1011.39
2018-03-29T07:47:57.817Z,1011.43
2018-03-29T07:48:58.026Z,1011.47
2018-03-29T07:49:57.798Z,1011.48
2018-03-29T07:50:57.766Z,1011.42
2018-03-29T07:51:57.756Z,1011.44
2018-03-29T07:52:57.758Z,1011.47
2018-03-29T07:53:57.794Z,1011.51
2018-03-29T07:54:57.770Z,1011.52
2018-03-29T07:55:57.761Z,1011.57
2018-03-29T07:56:57.772Z,1011.55
2018-03-29T07:57:57.895Z,1011.49
2018-03-29T07:58:57.750Z,1011.47
2018-03-29T07:59:57.773Z,1011.42
2018-03-29T08:00:57.761Z,1011.51
2018-03-29T08:01:57.755Z,1011.53
2018-03-29T08:02:57.772Z,1011.54
2018-03-29T08:03:57.782Z,1011.48
2018-03-29T08:04:57.754Z,1011.52
2018-03-29T08:05:57.759Z,1011.52
2018-03-29T08:06:57.770Z,1011.55
2018-03-29T08:07:57.757Z,1011.57
2018-03-29T08:08:57.761Z,1011.61
2018-03-29T08:09:57.788Z,1011.58
2018-03-29T08:10:57.766Z,1011.55
2018-03-29T08:11:57.763Z,1011.62
2018-03-29T08:12:57.760Z,1011.62
2018-03-29T08:13:57.783Z,1011.62
2018-03-29T08:14:57.805Z,1011.57
2018-03-29T08:15:57.756Z,1011.56
2018-03-29T08:16:57.755Z,1011.6
2018-03-29T08:17:57.767Z,1011.61
2018-03-29T08:18:57.836Z,1011.61
2018-03-29T08:19:57.761Z,1011.59
2018-03-29T08:20:57.860Z,1011.61
2018-03-29T08:21:57.770Z,1011.57
2018-03-29T08:22:57.764Z,1011.59
2018-03-29T08:23:57.791Z,1011.58
2018-03-29T08:24:57.783Z,1011.6
2018-03-29T08:25:57.764Z,1011.57
2018-03-29T08:26:57.768Z,1011.54
2018-03-29T08:27:57.778Z,1011.51
2018-03-29T08:28:57.843Z,1011.48
2018-03-29T08:29:57.773Z,1011.45
2018-03-29T08:30:57.764Z,1011.5
2018-03-29T08:31:57.798Z,1011.52
2018-03-29T08:32:57.768Z,1011.52
2018-03-29T08:33:57.797Z,1011.51
2018-03-29T08:34:57.770Z,1011.54
2018-03-29T08:35:57.768Z,1011.54
2018-03-29T08:36:57.776Z,1011.52
2018-03-29T08:37:57.768Z,1011.58
2018-03-29T08:38:57.771Z,1011.56
2018-03-29T08:39:57.843Z,1011.55
2018-03-29T08:40:57.802Z,1011.59
2018-03-29T08:41:57.774Z,1011.54
2018-03-29T08:42:57.761Z,1011.58
2018-03-29T08:43:57.770Z,1011.58
2018-03-29T08:44:57.779Z,1011.58
2018-03-29T08:45:57.880Z,1011.6
2018-03-29T08:46:57.855Z,1011.64
2018-03-29T08:47:57.762Z,1011.63
2018-03-29T08:48:57.838Z,1011.65
2018-03-29T08:49:57.863Z,1011.63
2018-03-29T08:50:57.772Z,1011.63
2018-03-29T08:51:57.765Z,1011.61
2018-03-29T08:52:57.772Z,1011.57
2018-03-29T08:53:57.772Z,1011.58
2018-03-29T08:54:57.781Z,1011.51
2018-03-29T08:55:57.784Z,1011.49
2018-03-29T08:56:57.777Z,1011.51
2018-03-29T08:57:57.779Z,1011.48
2018-03-29T08:58:57.779Z,1011.47
2018-03-29T08:59:57.772Z,1011.49
2018-03-29T09:00:57.783Z,1011.52
2018-03-29T09:01:57.792Z,1011.49
2018-03-29T09:02:57.805Z,1011.47
2018-03-29T09:03:57.785Z,1011.44
2018-03-29T09:04:57.806Z,1011.48
2018-03-29T09:05:57.773Z,1011.52
2018-03-29T09:06:57.780Z,1011.49
2018-03-29T09:07:57.778Z,1011.5
2018-03-29T09:08:57.784Z,1011.51
2018-03-29T09:09:57.850Z,1011.53
2018-03-29T09:10:57.792Z,1011.53
2018-03-29T09:11:57.788Z,1011.62
2018-03-29T09:12:57.779Z,1011.59
2018-03-29T09:13:57.775Z,1011.63
2018-03-29T09:14:57.782Z,1011.62
2018-03-29T09:15:57.782Z,1011.64
2018-03-29T09:16:57.814Z,1011.61
2018-03-29T09:17:57.854Z,1011.59
2018-03-29T09:18:57.892Z,1011.6
2018-03-29T09:19:57.781Z,1011.59
2018-03-29T09:20:57.843Z,1011.59
2018-03-29T09:21:57.780Z,1011.57
2018-03-29T09:22:57.780Z,1011.55
2018-03-29T09:23:57.805Z,1011.57
2018-03-29T09:24:57.810Z,1011.58
2018-03-29T09:25:57.800Z,1011.58
2018-03-29T09:26:57.792Z,1011.54
2018-03-29T09:27:57.790Z,1011.52
2018-03-29T09:28:57.785Z,1011.56
2018-03-29T09:29:57.876Z,1011.51
2018-03-29T09:30:57.791Z,1011.52
2018-03-29T09:31:57.789Z,1011.54
2018-03-29T09:32:57.793Z,1011.52
2018-03-29T09:33:57.790Z,1011.5
2018-03-29T09:34:57.801Z,1011.47
2018-03-29T09:35:57.794Z,1011.46
2018-03-29T09:36:57.799Z,1011.41
2018-03-29T09:37:57.787Z,1011.43
2018-03-29T09:38:58.299Z,1011.46
2018-03-29T09:39:57.795Z,1011.45
2018-03-29T09:40:57.801Z,1011.46
2018-03-29T09:41:57.806Z,1011.5
2018-03-29T09:42:57.791Z,1011.51
2018-03-29T09:43:57.792Z,1011.48
2018-03-29T09:44:57.799Z,1011.45
2018-03-29T09:45:57.790Z,1011.44
2018-03-29T09:46:57.792Z,1011.44
2018-03-29T09:47:57.817Z,1011.46
2018-03-29T09:48:57.799Z,1011.45
2018-03-29T09:49:57.791Z,1011.46
2018-03-29T09:50:57.791Z,1011.4
2018-03-29T09:51:57.884Z,1011.42
2018-03-29T09:52:57.814Z,1011.39
2018-03-29T09:53:57.794Z,1011.41
2018-03-29T09:54:57.815Z,1011.42
2018-03-29T09:55:57.793Z,1011.38
2018-03-29T09:56:57.814Z,1011.33
2018-03-29T09:57:57.809Z,1011.35
2018-03-29T09:58:57.798Z,1011.43
2018-03-29T09:59:57.809Z,1011.4
2018-03-29T10:00:57.796Z,1011.36
2018-03-29T10:01:57.841Z,1011.36
2018-03-29T10:02:57.805Z,1011.35
2018-03-29T10:03:57.799Z,1011.37
2018-03-29T10:04:57.797Z,1011.33
2018-03-29T10:05:57.798Z,1011.33
2018-03-29T10:06:57.801Z,1011.34
2018-03-29T10:07:57.798Z,1011.36
2018-03-29T10:08:57.822Z,1011.32
2018-03-29T10:09:57.809Z,1011.32
2018-03-29T10:10:57.805Z,1011.3
2018-03-29T10:11:57.806Z,1011.32
2018-03-29T10:12:57.806Z,1011.36
2018-03-29T10:13:57.803Z,1011.36
2018-03-29T10:14:57.808Z,1011.36
2018-03-29T10:15:57.908Z,1011.31
2018-03-29T10:16:57.823Z,1011.27
2018-03-29T10:17:57.806Z,1011.3
2018-03-29T10:18:57.809Z,1011.25
2018-03-29T10:19:57.816Z,1011.26
2018-03-29T10:20:57.818Z,1011.25
2018-03-29T10:21:57.827Z,1011.21
2018-03-29T10:22:57.889Z,1011.19
2018-03-29T10:23:57.817Z,1011.27
2018-03-29T10:24:57.819Z,1011.34
2018-03-29T10:25:57.818Z,1011.31
2018-03-29T10:26:57.809Z,1011.29
2018-03-29T10:27:57.812Z,1011.27
2018-03-29T10:28:57.820Z,1011.29
2018-03-29T10:29:57.810Z,1011.24
2018-03-29T10:30:57.828Z,1011.22
2018-03-29T10:31:57.805Z,1011.23
2018-03-29T10:32:57.830Z,1011.24
2018-03-29T10:33:57.813Z,1011.23
2018-03-29T10:34:57.805Z,1011.18
2018-03-29T10:35:57.802Z,1011.24
2018-03-29T10:36:57.806Z,1011.19
2018-03-29T10:37:57.817Z,1011.16
2018-03-29T10:38:57.814Z,1011.16
2018-03-29T10:39:57.832Z,1011.14
2018-03-29T10:40:57.804Z,1011.16
2018-03-29T10:41:57.807Z,1011.12
2018-03-29T10:42:57.813Z,1011.15
2018-03-29T10:43:57.822Z,1011.14
2018-03-29T10:44:57.819Z,1011.12
2018-03-29T10:45:57.826Z,1011.12
2018-03-29T10:46:57.870Z,1011.15
2018-03-29T10:47:57.812Z,1011.09
2018-03-29T10:48:57.811Z,1011.06
2018-03-29T10:49:57.808Z,1011.1
2018-03-29T10:50:57.819Z,1011.08
2018-03-29T10:51:57.837Z,1011.08
2018-03-29T10:52:57.847Z,1011.01
2018-03-29T10:53:57.892Z,1010.98
2018-03-29T10:54:57.804Z,1010.93
2018-03-29T10:55:57.812Z,1010.93
2018-03-29T10:56:57.813Z,1010.94
2018-03-29T10:57:57.818Z,1010.92
2018-03-29T10:58:57.824Z,1010.87
2018-03-29T10:59:57.817Z,1010.9
2018-03-29T11:00:57.839Z,1010.9
2018-03-29T11:01:57.839Z,1010.87
2018-03-29T11:02:57.819Z,1010.89
2018-03-29T11:03:57.825Z,1010.87
2018-03-29T11:04:57.826Z,1010.86
2018-03-29T11:05:57.828Z,1010.88
2018-03-29T11:06:57.851Z,1010.89
2018-03-29T11:07:57.854Z,1010.93
2018-03-29T11:08:57.829Z,1010.89
2018-03-29T11:09:57.835Z,1010.93
2018-03-29T11:10:57.819Z,1010.96
2018-03-29T11:11:57.849Z,1010.95
2018-03-29T11:12:57.854Z,1010.97
2018-03-29T11:13:57.829Z,1010.93
2018-03-29T11:14:57.855Z,1010.91
2018-03-29T11:15:57.838Z,1010.91
2018-03-29T11:16:57.879Z,1010.92
2018-03-29T11:17:57.839Z,1010.91
2018-03-29T11:18:57.823Z,1010.92
2018-03-29T11:19:57.826Z,1010.91
2018-03-29T11:20:57.825Z,1010.93
2018-03-29T11:21:57.845Z,1010.95
2018-03-29T11:22:57.832Z,1010.93
2018-03-29T11:23:57.844Z,1010.95
2018-03-29T11:24:57.961Z,1010.94
2018-03-29T11:25:57.854Z,1010.93
2018-03-29T11:26:57.841Z,1010.94
2018-03-29T11:27:57.830Z,1010.95
2018-03-29T11:28:57.852Z,1010.91
2018-03-29T11:29:57.863Z,1010.88
2018-03-29T11:30:57.835Z,1010.95
2018-03-29T11:31:57.843Z,1010.83
2018-03-29T11:32:57.847Z,1010.9
2018-03-29T11:33:57.839Z,1010.87
2018-03-29T11:34:57.840Z,1010.86
2018-03-29T11:35:57.876Z,1010.85
2018-03-29T11:36:57.833Z,1010.87
2018-03-29T11:37:57.882Z,1010.78
2018-03-29T11:38:57.852Z,1010.77
2018-03-29T11:39:57.842Z,1010.78
2018-03-29T11:40:57.842Z,1010.78
2018-03-29T11:41:57.854Z,1010.8
2018-03-29T11:42:57.833Z,1010.82
2018-03-29T11:43:57.857Z,1010.8
2018-03-29T11:44:57.840Z,1010.78
2018-03-29T11:45:57.846Z,1010.8
2018-03-29T11:46:57.848Z,1010.78
2018-03-29T11:47:57.843Z,1010.72
2018-03-29T11:48:57.838Z,1010.79
2018-03-29T11:49:57.842Z,1010.77
2018-03-29T11:50:57.847Z,1010.76
2018-03-29T11:51:57.845Z,1010.73
2018-03-29T11:52:57.910Z,1010.77
2018-03-29T11:53:57.833Z,1010.75
2018-03-29T11:54:57.838Z,1010.7
2018-03-29T11:55:57.902Z,1010.71
2018-03-29T11:56:57.850Z,1010.72
2018-03-29T11:57:57.854Z,1010.75
2018-03-29T11:58:57.862Z,1010.77
2018-03-29T11:59:57.847Z,1010.76
2018-03-29T12:00:57.848Z,1010.75
2018-03-29T12:01:57.855Z,1010.72
2018-03-29T12:02:57.883Z,1010.74
2018-03-29T12:03:57.848Z,1010.71
2018-03-29T12:04:57.882Z,1010.73
2018-03-29T12:05:57.955Z,1010.75
2018-03-29T12:06:57.848Z,1010.72
2018-03-29T12:07:57.853Z,1010.72
2018-03-29T12:08:57.920Z,1010.74